New Preston Marble Dale, CT (06777)

10:58 AM EDT on August 27, 2016 (GMT -0400)
KCTWARRE4 | | Change Station

Elev 1181 ft 41.74 °N, 73.34 °W | Updated 45 seconds ago

Clear
Clear
77.2 °F
Feels Like 77 °F
N
0.0
Wind Variable Wind from NE
Gusts 1.0 mph

Today
High -- | Low -- °F
--% Chance of Precip.
Yesterday
High -- | Low -- °F
Precip. -- in
Pressure 30.25 in
Visibility 10.0 miles
Clouds Clear
Heat Index 77 °F
Dew Point 39 °F
Humidity 26%
Rainfall 0.00 in
Snow Depth Not available.
6:14 AM 7:33 PM
Waning Crescent, 24% visible
METAR KOXC 271452Z 36003KT 10SM SKC 26/16 A3025
Pressure 30.25 in
Visibility 10.0 miles
Clouds Clear
Heat Index 77 °F
Dew Point 39 °F
Humidity 26%
Rainfall 0.00 in
Snow Depth Not available.
6:14 AM 7:33 PM
Waning Crescent, 24% visible
METAR KOXC 271452Z 36003KT 10SM SKC 26/16 A3025

10-Day Weather Forecast

Almanac

Astronomy

Aug. 27, 2016 Rise Set
Actual Time
Civil Twilight
Nautical Twilight
Astronomical Twilight
Moon
Length of Visible Light
Length of Day
Tomorrow will be .
, % of the Moon is Illuminated

Today's Extremes

State Highs State Lows

Community

WunderPhotos

Upload Photos

1,935,344 photos uploaded!

WunderBlog® & News

Nearby

Air Quality

  Air Quality AQ Index Pollutant
Not available.

Snow Depth

Station Depth Elevation

Earthquake Activity

City Distance Mag. Time & Date
Minimum magnitude displayed is 2.5.

Coastal Water Temperatures

Place Temperature

Stations

Nearby Weather Stations

Station Location Temp. Windchill Dew Point Humidity Wind Precip. Elev Updated Type
                   

Watches & Warnings

There are currently no watches in effect.